Time;durP1;ratioP1;P1;durP2;ratioP2;P2;SDS_P1;SDS_P2;PMS_P1;PMS_P2;Temp;Humidity;BMP_temperature;BMP_pressure;BME280_temperature;BME280_humidity;BME280_pressure;Samples;Min_cycle;Max_cycle;Signal;HPM_P1;HPM_P2
2022/03/30 00:00:18;;;;;;;;;;;4.70;99.90;;;;;;2609777;46;20799;31
2022/03/30 00:02:56;;;;;;;;;;;4.70;99.90;;;;;;2621063;46;19934;31
2022/03/30 00:05:31;;;;;;;;;;;4.70;99.90;;;;;;2701319;39;20305;31
2022/03/30 00:08:08;;;;;;;;;;;4.70;99.90;;;;;;2602909;54;19934;31
2022/03/30 00:10:43;;;;;;;;;;;4.60;99.90;;;;;;2602893;54;19942;31
2022/03/30 00:13:21;;;;;;;;;;;4.60;99.90;;;;;;2602780;54;19935;31
2022/03/30 00:15:55;;;;;;;;;;;4.60;99.90;;;;;;2602865;54;20807;31
2022/03/30 00:18:31;;;;;;;;;;;4.60;99.90;;;;;;2602676;54;19934;31
2022/03/30 00:21:09;;;;;;;;;;;4.50;99.90;;;;;;2621181;46;22269;31
2022/03/30 00:23:44;;;;;;;;;;;4.50;99.90;;;;;;2621352;47;20002;31
2022/03/30 00:26:19;;;;;;;;;;;4.50;99.90;;;;;;2613342;47;21069;31
2022/03/30 00:28:56;;;;;;;;;;;4.50;99.90;;;;;;2602895;54;20778;31
2022/03/30 00:31:30;;;;;;;;;;;4.40;99.90;;;;;;2602975;54;20734;31
2022/03/30 00:34:07;;;;;;;;;;;4.40;99.90;;;;;;2602681;54;20572;31
2022/03/30 00:36:43;;;;;;;;;;;4.30;99.90;;;;;;2602415;54;20658;31
2022/03/30 00:39:19;;;;;;;;;;;4.30;99.90;;;;;;2602671;54;19973;31
2022/03/30 00:41:54;;;;;;;;;;;4.30;99.90;;;;;;2602859;54;20666;31
2022/03/30 00:44:34;;;;;;;;;;;4.30;99.90;;;;;;2602668;54;20809;31
2022/03/30 00:47:14;;;;;;;;;;;4.30;99.90;;;;;;2602966;54;19934;31
2022/03/30 00:49:49;;;;;;;;;;;4.20;99.90;;;;;;2603071;54;19941;31
2022/03/30 00:52:26;;;;;;;;;;;4.20;99.90;;;;;;2701118;39;20429;31
2022/03/30 00:55:00;;;;;;;;;;;4.20;99.90;;;;;;2602583;54;20519;31
2022/03/30 00:57:37;;;;;;;;;;;4.10;99.90;;;;;;2602748;54;20477;31
2022/03/30 01:00:17;;;;;;;;;;;4.10;99.90;;;;;;2621117;47;19962;31
2022/03/30 01:02:53;;;;;;;;;;;4.10;99.90;;;;;;2602817;54;19946;31
2022/03/30 01:05:29;;;;;;;;;;;4.00;99.90;;;;;;2602699;54;20612;31
2022/03/30 01:08:06;;;;;;;;;;;4.00;99.90;;;;;;2602857;54;19974;31
2022/03/30 01:10:43;;;;;;;;;;;3.90;99.90;;;;;;2602011;54;19941;31
2022/03/30 01:13:23;;;;;;;;;;;3.90;99.90;;;;;;2602737;54;21122;31
2022/03/30 01:16:02;;;;;;;;;;;3.90;99.90;;;;;;2621742;47;19934;31
2022/03/30 01:18:44;;;;;;;;;;;3.80;99.90;;;;;;2602820;54;19935;31
2022/03/30 01:21:26;;;;;;;;;;;3.70;99.90;;;;;;2602690;54;19946;31
2022/03/30 01:24:02;;;;;;;;;;;3.70;99.90;;;;;;2602752;54;20820;31
2022/03/30 01:26:36;;;;;;;;;;;3.60;99.90;;;;;;2602617;54;20693;31
2022/03/30 01:34:48;;;;;;;;;;;3.40;99.90;;;;;;2622020;46;19942;31
2022/03/30 01:37:28;;;;;;;;;;;3.40;99.90;;;;;;2602972;54;19992;31
2022/03/30 01:40:00;;;;;;;;;;;3.30;99.90;;;;;;2621628;46;21055;31
2022/03/30 01:42:35;;;;;;;;;;;3.30;99.90;;;;;;2603225;54;20793;31
2022/03/30 01:45:15;;;;;;;;;;;3.30;99.90;;;;;;2603338;54;20742;31
2022/03/30 01:47:52;;;;;;;;;;;3.30;99.90;;;;;;2607212;46;20712;31
2022/03/30 01:50:27;;;;;;;;;;;3.30;99.90;;;;;;2621830;46;19934;31
2022/03/30 01:53:09;;;;;;;;;;;3.20;99.90;;;;;;2603412;54;20820;31
2022/03/30 01:55:46;;;;;;;;;;;3.20;99.90;;;;;;2603291;54;19994;31
2022/03/30 01:58:21;;;;;;;;;;;3.10;99.90;;;;;;2603224;54;20681;31
2022/03/30 02:00:57;;;;;;;;;;;3.10;99.90;;;;;;2603394;54;20791;31
2022/03/30 02:03:34;;;;;;;;;;;3.10;99.90;;;;;;2622008;46;20725;31
2022/03/30 02:06:09;;;;;;;;;;;3.00;99.90;;;;;;2603419;54;20668;31
2022/03/30 02:08:48;;;;;;;;;;;3.00;99.90;;;;;;2603310;54;19941;31
2022/03/30 02:11:27;;;;;;;;;;;3.00;99.90;;;;;;2603185;54;20714;31
2022/03/30 02:14:03;;;;;;;;;;;3.00;99.90;;;;;;2603133;54;19965;31
2022/03/30 02:16:37;;;;;;;;;;;3.00;99.90;;;;;;2621783;46;19934;31
2022/03/30 02:19:14;;;;;;;;;;;2.90;99.90;;;;;;2603463;54;22279;31
2022/03/30 02:21:51;;;;;;;;;;;2.90;99.90;;;;;;2603211;54;20729;31
2022/03/30 02:24:26;;;;;;;;;;;2.90;99.90;;;;;;2602400;54;19943;31
2022/03/30 02:27:03;;;;;;;;;;;2.80;99.90;;;;;;2621544;46;19942;31
2022/03/30 02:29:41;;;;;;;;;;;2.80;99.90;;;;;;2622070;46;19934;31
2022/03/30 02:32:25;;;;;;;;;;;2.80;99.90;;;;;;2602357;54;19943;31
2022/03/30 02:35:00;;;;;;;;;;;2.70;99.90;;;;;;2621789;46;19960;31
2022/03/30 02:37:34;;;;;;;;;;;2.70;99.90;;;;;;2603097;54;19992;31
2022/03/30 02:40:11;;;;;;;;;;;2.70;99.90;;;;;;2603283;54;20752;31
2022/03/30 02:42:52;;;;;;;;;;;2.70;99.90;;;;;;2602378;54;20796;31
2022/03/30 02:45:26;;;;;;;;;;;2.70;99.90;;;;;;2603120;54;19942;31
2022/03/30 02:50:48;;;;;;;;;;;2.50;99.90;;;;;;2621627;46;19980;31
2022/03/30 02:53:22;;;;;;;;;;;2.50;99.90;;;;;;2603103;54;19943;31
2022/03/30 02:56:00;;;;;;;;;;;2.40;99.90;;;;;;2620968;46;19942;31
2022/03/30 02:58:38;;;;;;;;;;;2.40;99.90;;;;;;2603203;54;20730;31
2022/03/30 03:01:14;;;;;;;;;;;2.30;99.90;;;;;;2603076;54;20499;31
2022/03/30 03:03:51;;;;;;;;;;;2.20;99.90;;;;;;2602853;54;20849;31
2022/03/30 03:06:28;;;;;;;;;;;2.20;99.90;;;;;;2720432;39;20285;31
2022/03/30 03:09:06;;;;;;;;;;;2.20;99.90;;;;;;2621534;46;19935;31
2022/03/30 03:11:41;;;;;;;;;;;2.20;99.90;;;;;;2603345;54;19972;31
2022/03/30 03:14:20;;;;;;;;;;;2.20;99.90;;;;;;2621528;46;19966;31
2022/03/30 03:16:55;;;;;;;;;;;2.10;99.90;;;;;;2621152;46;19962;31
2022/03/30 03:19:32;;;;;;;;;;;2.10;99.90;;;;;;2603201;54;20788;31
2022/03/30 03:22:09;;;;;;;;;;;2.10;99.90;;;;;;2603108;54;19935;31
2022/03/30 03:24:43;;;;;;;;;;;2.10;99.90;;;;;;2603113;54;19962;31
2022/03/30 03:27:18;;;;;;;;;;;2.10;99.90;;;;;;2621356;46;19985;31
2022/03/30 03:29:55;;;;;;;;;;;2.10;99.90;;;;;;2603013;54;19934;31
2022/03/30 03:32:32;;;;;;;;;;;2.10;99.90;;;;;;2616918;46;20745;31
2022/03/30 03:35:12;;;;;;;;;;;2.10;99.90;;;;;;2603122;54;19935;31
2022/03/30 03:37:48;;;;;;;;;;;2.10;99.90;;;;;;2614748;46;20693;31
2022/03/30 03:40:25;;;;;;;;;;;2.10;99.90;;;;;;2620716;46;20655;31
2022/03/30 03:43:04;;;;;;;;;;;2.10;99.90;;;;;;2602872;54;19946;31
2022/03/30 03:45:42;;;;;;;;;;;2.00;99.90;;;;;;2602996;54;19935;31
2022/03/30 03:48:20;;;;;;;;;;;2.00;99.90;;;;;;2602765;54;19942;31
2022/03/30 03:51:01;;;;;;;;;;;1.90;99.90;;;;;;2602882;54;19940;31
2022/03/30 03:53:42;;;;;;;;;;;1.90;99.90;;;;;;2621616;46;19942;31
2022/03/30 03:56:37;;;;;;;;;;;1.90;99.90;;;;;;2602910;54;19961;31
2022/03/30 03:59:12;;;;;;;;;;;1.90;99.90;;;;;;2608605;46;20639;31
2022/03/30 04:01:49;;;;;;;;;;;1.90;99.90;;;;;;2602482;54;20758;31
2022/03/30 04:04:28;;;;;;;;;;;1.80;99.90;;;;;;2621198;46;19961;31
2022/03/30 04:07:26;;;;;;;;;;;1.80;99.90;;;;;;2603028;54;21087;31
2022/03/30 04:10:17;;;;;;;;;;;1.70;99.90;;;;;;2602974;54;19973;31
2022/03/30 04:12:52;;;;;;;;;;;1.70;99.90;;;;;;2621234;46;19934;31
2022/03/30 04:15:32;;;;;;;;;;;1.60;99.90;;;;;;2621258;46;19935;31
2022/03/30 04:18:13;;;;;;;;;;;1.60;99.90;;;;;;2602092;54;20006;31
2022/03/30 04:20:53;;;;;;;;;;;1.60;99.90;;;;;;2621540;46;20763;31
2022/03/30 04:23:27;;;;;;;;;;;1.60;99.90;;;;;;2603031;54;19966;31
2022/03/30 04:26:02;;;;;;;;;;;1.60;99.90;;;;;;2602617;54;20734;31
2022/03/30 04:28:43;;;;;;;;;;;1.60;99.90;;;;;;2602991;54;20784;31
2022/03/30 04:31:20;;;;;;;;;;;1.60;99.90;;;;;;2621272;47;19938;31
2022/03/30 04:34:00;;;;;;;;;;;1.60;99.90;;;;;;2621550;47;20729;31
2022/03/30 04:36:46;;;;;;;;;;;1.60;99.90;;;;;;2602519;54;19942;31
2022/03/30 04:39:35;;;;;;;;;;;1.60;99.90;;;;;;2617930;46;19954;31
2022/03/30 04:42:13;;;;;;;;;;;1.50;99.90;;;;;;2602901;54;19956;31
2022/03/30 04:45:02;;;;;;;;;;;1.50;99.90;;;;;;2602790;54;19957;31
2022/03/30 04:47:48;;;;;;;;;;;1.50;99.90;;;;;;2621191;47;21362;31
2022/03/30 04:50:42;;;;;;;;;;;1.40;99.90;;;;;;2603272;54;19969;31
2022/03/30 04:53:35;;;;;;;;;;;1.40;99.90;;;;;;2622037;46;19985;31
2022/03/30 04:58:55;;;;;;;;;;;1.40;99.90;;;;;;2622150;46;19950;31
2022/03/30 05:07:32;;;;;;;;;;;1.50;99.90;;;;;;2621885;46;19961;31
2022/03/30 05:10:14;;;;;;;;;;;1.50;99.90;;;;;;2603720;54;19941;31
2022/03/30 05:12:54;;;;;;;;;;;1.50;99.90;;;;;;2606643;46;20673;31
2022/03/30 05:15:30;;;;;;;;;;;1.50;99.90;;;;;;2612250;46;19946;31
2022/03/30 05:18:08;;;;;;;;;;;1.60;99.90;;;;;;2603447;54;20635;31
2022/03/30 05:20:46;;;;;;;;;;;1.60;99.90;;;;;;2622028;46;19980;31
2022/03/30 05:23:25;;;;;;;;;;;1.70;99.90;;;;;;2603465;54;19977;31
2022/03/30 05:26:03;;;;;;;;;;;1.70;99.90;;;;;;2622198;46;19935;31
2022/03/30 05:28:42;;;;;;;;;;;1.80;99.90;;;;;;2603279;54;19935;31
2022/03/30 05:31:18;;;;;;;;;;;1.90;99.90;;;;;;2621795;46;21145;31
2022/03/30 05:33:53;;;;;;;;;;;2.00;99.90;;;;;;2603625;54;20796;31
2022/03/30 05:36:31;;;;;;;;;;;2.00;99.90;;;;;;2621760;46;19942;31
2022/03/30 05:39:08;;;;;;;;;;;2.10;99.90;;;;;;2603194;54;20804;31
2022/03/30 05:41:42;;;;;;;;;;;2.20;99.90;;;;;;2603490;54;20783;31
2022/03/30 05:44:20;;;;;;;;;;;2.30;99.90;;;;;;2603256;54;20655;31
2022/03/30 05:46:57;;;;;;;;;;;2.30;99.90;;;;;;2603635;54;20772;31
2022/03/30 05:49:34;;;;;;;;;;;2.40;99.90;;;;;;2604161;46;19938;31
2022/03/30 05:52:10;;;;;;;;;;;2.50;99.90;;;;;;2622113;46;19969;31
2022/03/30 05:54:47;;;;;;;;;;;2.60;99.90;;;;;;2603344;54;19934;31
2022/03/30 05:57:23;;;;;;;;;;;2.70;99.90;;;;;;2603379;54;20745;31
2022/03/30 06:00:01;;;;;;;;;;;2.90;99.90;;;;;;2603096;54;20408;31
2022/03/30 06:02:38;;;;;;;;;;;3.00;99.90;;;;;;2701694;39;20440;31
2022/03/30 06:05:13;;;;;;;;;;;3.10;99.90;;;;;;2603267;54;19939;31
2022/03/30 06:07:48;;;;;;;;;;;3.20;99.90;;;;;;2603328;54;19962;31
2022/03/30 06:10:25;;;;;;;;;;;3.30;99.90;;;;;;2603161;54;20493;31
2022/03/30 06:13:01;;;;;;;;;;;3.50;99.90;;;;;;2603322;54;20781;31
2022/03/30 06:15:36;;;;;;;;;;;3.60;99.90;;;;;;2603689;54;19935;31
2022/03/30 06:18:14;;;;;;;;;;;3.80;99.90;;;;;;2621814;46;19942;31
2022/03/30 06:20:50;;;;;;;;;;;4.00;99.90;;;;;;2603405;54;19934;31
2022/03/30 06:23:25;;;;;;;;;;;4.10;99.90;;;;;;2603053;54;20757;31
2022/03/30 06:26:01;;;;;;;;;;;4.30;99.90;;;;;;2603464;54;22316;31
2022/03/30 06:28:36;;;;;;;;;;;4.40;99.90;;;;;;2603525;54;19941;31
2022/03/30 06:31:13;;;;;;;;;;;4.60;99.90;;;;;;2621491;46;20782;31
2022/03/30 06:33:52;;;;;;;;;;;4.70;99.90;;;;;;2621827;46;20762;31
2022/03/30 06:36:28;;;;;;;;;;;4.90;99.90;;;;;;2603254;54;19972;31
2022/03/30 06:39:03;;;;;;;;;;;5.10;99.90;;;;;;2621307;46;19939;31
2022/03/30 06:41:39;;;;;;;;;;;5.30;99.90;;;;;;2603193;54;20490;31
2022/03/30 06:44:16;;;;;;;;;;;5.50;99.90;;;;;;2603384;54;19965;31
2022/03/30 06:46:51;;;;;;;;;;;5.80;99.90;;;;;;2603050;54;20778;31
2022/03/30 06:49:28;;;;;;;;;;;6.00;99.90;;;;;;2602507;54;20740;31
2022/03/30 06:52:05;;;;;;;;;;;6.20;99.90;;;;;;2613027;46;20833;31
2022/03/30 06:54:42;;;;;;;;;;;6.40;99.90;;;;;;2602403;54;19946;31
2022/03/30 06:57:16;;;;;;;;;;;6.60;99.90;;;;;;2620973;46;20776;31
2022/03/30 06:59:50;;;;;;;;;;;6.70;99.90;;;;;;2719898;39;20470;31
2022/03/30 07:02:24;;;;;;;;;;;6.90;99.90;;;;;;2602705;54;19935;31
2022/03/30 07:05:02;;;;;;;;;;;7.10;99.90;;;;;;2602260;54;19934;31
2022/03/30 07:10:33;;;;;;;;;;;7.80;99.90;;;;;;2601999;54;19954;31
2022/03/30 07:13:07;;;;;;;;;;;8.00;99.90;;;;;;2619407;46;19946;31
2022/03/30 07:15:44;;;;;;;;;;;8.40;99.90;;;;;;2601376;54;20873;31
2022/03/30 07:18:20;;;;;;;;;;;8.70;99.90;;;;;;2600987;54;20833;31
2022/03/30 07:20:55;;;;;;;;;;;9.20;99.90;;;;;;2601699;54;20775;31
2022/03/30 07:23:33;;;;;;;;;;;9.60;99.90;;;;;;2601975;54;19935;31
2022/03/30 07:26:08;;;;;;;;;;;10.10;99.90;;;;;;2601838;54;19997;31
2022/03/30 07:28:47;;;;;;;;;;;10.50;99.90;;;;;;2601792;54;19943;31
2022/03/30 07:31:23;;;;;;;;;;;10.80;99.90;;;;;;2619921;46;19946;31
2022/03/30 07:34:10;;;;;;;;;;;11.10;99.90;;;;;;2601568;54;20004;31
2022/03/30 07:36:45;;;;;;;;;;;11.40;99.90;;;;;;2601016;54;19946;31
2022/03/30 07:39:24;;;;;;;;;;;11.60;99.90;;;;;;2601346;54;19942;31
2022/03/30 07:41:58;;;;;;;;;;;11.70;99.90;;;;;;2608962;46;22134;31
2022/03/30 07:44:35;;;;;;;;;;;11.90;99.90;;;;;;2620440;46;20803;31
2022/03/30 07:47:10;;;;;;;;;;;12.10;99.90;;;;;;2602790;54;20680;31
2022/03/30 07:49:45;;;;;;;;;;;12.20;99.90;;;;;;2602888;54;20669;31
2022/03/30 07:52:20;;;;;;;;;;;12.40;99.90;;;;;;2602774;54;19990;31
2022/03/30 07:55:02;;;;;;;;;;;12.60;99.90;;;;;;2602286;54;19965;31
2022/03/30 08:00:18;;;;;;;;;;;12.70;99.90;;;;;;2621487;46;19957;31
2022/03/30 08:02:54;;;;;;;;;;;12.60;99.90;;;;;;2715194;39;21428;31
2022/03/30 08:05:30;;;;;;;;;;;12.70;99.90;;;;;;2602856;54;19998;31
2022/03/30 08:08:07;;;;;;;;;;;12.70;99.90;;;;;;2621605;46;20775;31
2022/03/30 08:10:46;;;;;;;;;;;12.60;99.90;;;;;;2621608;46;19982;31
2022/03/30 08:13:20;;;;;;;;;;;12.80;99.90;;;;;;2601965;54;20796;31
2022/03/30 08:15:59;;;;;;;;;;;12.80;99.90;;;;;;2601699;54;20013;31
2022/03/30 08:18:33;;;;;;;;;;;12.80;99.90;;;;;;2602183;54;20829;31
2022/03/30 08:23:59;;;;;;;;;;;13.20;99.90;;;;;;2602901;54;19941;31
2022/03/30 08:26:39;;;;;;;;;;;13.40;99.90;;;;;;2604555;54;20792;31
2022/03/30 08:31:59;;;;;;;;;;;13.80;99.90;;;;;;2604425;54;19986;31
2022/03/30 08:34:38;;;;;;;;;;;14.10;99.90;;;;;;2604880;54;19941;31
2022/03/30 08:37:13;;;;;;;;;;;14.00;99.90;;;;;;2622905;46;20010;31
2022/03/30 08:39:48;;;;;;;;;;;13.90;99.90;;;;;;2604726;54;20746;31
2022/03/30 08:42:28;;;;;;;;;;;14.10;99.90;;;;;;2623127;46;19946;31
2022/03/30 08:45:06;;;;;;;;;;;14.30;99.90;;;;;;2604584;54;19985;31
2022/03/30 08:47:41;;;;;;;;;;;14.30;99.90;;;;;;2604567;54;20681;31
2022/03/30 08:50:16;;;;;;;;;;;14.20;99.70;;;;;;2623158;46;19942;31
2022/03/30 08:52:53;;;;;;;;;;;13.90;99.10;;;;;;2604651;54;20758;31
2022/03/30 08:55:27;;;;;;;;;;;13.80;99.90;;;;;;2604407;54;19943;31
2022/03/30 08:58:04;;;;;;;;;;;13.90;98.30;;;;;;2604601;54;19946;31
2022/03/30 09:00:40;;;;;;;;;;;13.90;97.80;;;;;;2604759;54;20814;31
2022/03/30 09:03:17;;;;;;;;;;;13.80;96.70;;;;;;2604826;54;19938;31
2022/03/30 09:05:59;;;;;;;;;;;13.60;97.20;;;;;;2622831;46;19942;31
2022/03/30 09:08:33;;;;;;;;;;;13.50;97.30;;;;;;2604397;54;20770;31
2022/03/30 09:11:11;;;;;;;;;;;13.60;97.00;;;;;;2604677;54;20080;31
2022/03/30 09:14:01;;;;;;;;;;;13.60;96.80;;;;;;2604350;54;20775;31
2022/03/30 09:16:40;;;;;;;;;;;13.80;96.40;;;;;;2623069;46;20788;31
2022/03/30 09:19:20;;;;;;;;;;;13.90;96.20;;;;;;2604362;54;19938;31
2022/03/30 09:21:56;;;;;;;;;;;14.10;95.10;;;;;;2604323;54;19934;31
2022/03/30 09:24:32;;;;;;;;;;;14.20;94.00;;;;;;2604810;54;19934;31
2022/03/30 09:27:09;;;;;;;;;;;14.40;94.60;;;;;;2620064;46;20552;31
2022/03/30 09:29:47;;;;;;;;;;;14.60;93.90;;;;;;2622871;46;19978;31
2022/03/30 09:32:33;;;;;;;;;;;14.70;94.00;;;;;;2623087;46;19935;31
2022/03/30 09:35:14;;;;;;;;;;;14.90;93.80;;;;;;2604432;54;19957;31
2022/03/30 09:37:55;;;;;;;;;;;15.10;94.20;;;;;;2603414;54;19981;31
2022/03/30 09:40:37;;;;;;;;;;;15.30;93.20;;;;;;2621819;46;19973;31
2022/03/30 09:43:17;;;;;;;;;;;15.30;93.00;;;;;;2621850;46;20517;31
2022/03/30 09:45:54;;;;;;;;;;;15.50;93.00;;;;;;2603486;54;20780;31
2022/03/30 09:48:40;;;;;;;;;;;15.80;92.60;;;;;;2603282;54;19981;31
2022/03/30 09:51:16;;;;;;;;;;;15.60;90.40;;;;;;2791741;31;20574;31
2022/03/30 09:53:51;;;;;;;;;;;15.70;90.90;;;;;;2622262;46;20697;31
2022/03/30 09:56:28;;;;;;;;;;;15.80;91.20;;;;;;2603323;54;20013;31
2022/03/30 10:01:34;;;;;;;;;;;16.10;91.10;;;;;;2621853;46;19947;31
2022/03/30 10:04:13;;;;;;;;;;;16.20;90.00;;;;;;2622040;46;19957;31
2022/03/30 10:06:47;;;;;;;;;;;16.30;88.60;;;;;;2603549;54;19946;31
2022/03/30 10:09:22;;;;;;;;;;;16.30;86.90;;;;;;2622156;46;20730;31
2022/03/30 10:11:58;;;;;;;;;;;16.20;87.00;;;;;;2603581;54;19934;31
2022/03/30 10:14:34;;;;;;;;;;;16.10;86.80;;;;;;2622017;46;19943;31
2022/03/30 10:17:08;;;;;;;;;;;16.20;87.40;;;;;;2603343;54;19934;31
2022/03/30 10:19:49;;;;;;;;;;;16.30;87.30;;;;;;2603286;54;20794;31
2022/03/30 10:22:30;;;;;;;;;;;16.50;89.20;;;;;;2603585;54;20627;31
2022/03/30 10:25:09;;;;;;;;;;;16.70;86.30;;;;;;2603450;54;20803;31
2022/03/30 10:27:47;;;;;;;;;;;16.80;88.00;;;;;;2603270;54;19935;31
2022/03/30 10:30:27;;;;;;;;;;;16.70;83.90;;;;;;2603511;54;20744;31
2022/03/30 10:33:03;;;;;;;;;;;16.80;85.20;;;;;;2621930;46;20728;31
2022/03/30 10:35:41;;;;;;;;;;;16.80;84.50;;;;;;2603567;54;19935;31
2022/03/30 10:38:22;;;;;;;;;;;16.80;85.40;;;;;;2603552;54;20654;31
2022/03/30 10:41:10;;;;;;;;;;;16.80;86.70;;;;;;2603346;54;20744;31
2022/03/30 10:43:45;;;;;;;;;;;16.70;86.60;;;;;;2603351;54;20645;31
2022/03/30 10:46:43;;;;;;;;;;;16.60;83.50;;;;;;2621952;46;20826;31
2022/03/30 10:49:31;;;;;;;;;;;16.60;85.00;;;;;;2603448;54;20761;31
2022/03/30 10:52:20;;;;;;;;;;;16.50;83.70;;;;;;2603098;54;20667;31
2022/03/30 10:54:57;;;;;;;;;;;16.40;84.70;;;;;;2603217;54;19934;31
2022/03/30 10:57:46;;;;;;;;;;;16.30;84.70;;;;;;2602439;54;20939;31
2022/03/30 11:00:23;;;;;;;;;;;16.20;85.90;;;;;;2603536;54;20732;31
2022/03/30 11:03:08;;;;;;;;;;;16.10;85.70;;;;;;2603167;54;19934;31
2022/03/30 11:05:46;;;;;;;;;;;16.10;86.20;;;;;;2603574;54;20754;31
2022/03/30 11:08:36;;;;;;;;;;;16.00;84.30;;;;;;2621833;46;20780;31
2022/03/30 11:11:25;;;;;;;;;;;16.10;86.60;;;;;;2603304;54;19941;31
2022/03/30 11:14:14;;;;;;;;;;;16.20;86.00;;;;;;2603213;54;19935;31
2022/03/30 11:19:26;;;;;;;;;;;16.10;84.80;;;;;;2603358;54;20777;31
2022/03/30 11:22:11;;;;;;;;;;;16.10;83.60;;;;;;2603225;54;19934;31
2022/03/30 11:24:51;;;;;;;;;;;16.10;84.30;;;;;;2603105;54;20674;31
2022/03/30 11:27:29;;;;;;;;;;;16.10;84.40;;;;;;2603426;54;20807;31
2022/03/30 11:30:08;;;;;;;;;;;16.10;85.30;;;;;;2621820;46;19941;31
2022/03/30 11:32:45;;;;;;;;;;;16.00;84.90;;;;;;2603039;54;19935;31
2022/03/30 11:35:21;;;;;;;;;;;16.00;85.90;;;;;;2621597;46;20795;31
2022/03/30 11:38:04;;;;;;;;;;;16.00;84.60;;;;;;2603200;54;20730;31
2022/03/30 11:40:40;;;;;;;;;;;16.00;83.90;;;;;;2603010;54;19941;31
2022/03/30 11:43:18;;;;;;;;;;;15.90;85.50;;;;;;2621553;46;20004;31
2022/03/30 11:46:13;;;;;;;;;;;15.80;83.40;;;;;;2603154;54;20791;31
2022/03/30 11:48:48;;;;;;;;;;;15.70;82.70;;;;;;2621706;46;20699;31
2022/03/30 11:51:27;;;;;;;;;;;15.50;82.80;;;;;;2602976;54;20017;31
2022/03/30 11:54:15;;;;;;;;;;;15.30;83.80;;;;;;2602262;54;19942;31
2022/03/30 11:56:49;;;;;;;;;;;15.20;84.50;;;;;;2603313;54;19957;31
2022/03/30 11:59:23;;;;;;;;;;;15.00;85.30;;;;;;2621418;46;19942;31
2022/03/30 12:02:02;;;;;;;;;;;15.00;87.30;;;;;;2621361;46;20657;31
2022/03/30 12:04:40;;;;;;;;;;;14.90;87.10;;;;;;2602488;54;21533;31
2022/03/30 12:07:16;;;;;;;;;;;14.90;87.90;;;;;;2613466;46;19934;31
2022/03/30 12:09:53;;;;;;;;;;;14.70;86.60;;;;;;2602212;54;19935;31
2022/03/30 12:12:30;;;;;;;;;;;14.70;86.50;;;;;;2603140;54;20791;31
2022/03/30 12:15:08;;;;;;;;;;;14.70;88.40;;;;;;2603238;54;20740;31
2022/03/30 12:17:47;;;;;;;;;;;14.70;88.10;;;;;;2602957;54;19934;31
2022/03/30 12:20:35;;;;;;;;;;;;;;;;;;;;;
2022/03/30 12:23:10;;;;;;;;;;;14.70;87.40;;;;;;2602893;54;20005;31
2022/03/30 12:25:46;;;;;;;;;;;14.70;86.70;;;;;;2621973;46;20730;31
2022/03/30 12:28:31;;;;;;;;;;;14.70;88.10;;;;;;2602900;54;19966;31
2022/03/30 12:31:07;;;;;;;;;;;14.70;86.60;;;;;;2603084;54;19961;31
2022/03/30 12:33:50;;;;;;;;;;;14.80;86.60;;;;;;2602024;54;20036;31
2022/03/30 12:36:25;;;;;;;;;;;14.80;85.60;;;;;;2602854;54;20026;31
2022/03/30 12:38:58;;;;;;;;;;;14.70;84.70;;;;;;2621382;47;19935;31
2022/03/30 12:41:31;;;;;;;;;;;14.70;86.00;;;;;;2602251;54;19950;31
2022/03/30 12:44:09;;;;;;;;;;;14.70;88.70;;;;;;2621374;47;19934;31
2022/03/30 12:46:45;;;;;;;;;;;14.80;86.20;;;;;;2621354;47;19981;31
2022/03/30 12:49:21;;;;;;;;;;;14.80;85.60;;;;;;2621603;47;21471;31
2022/03/30 12:52:02;;;;;;;;;;;14.80;84.40;;;;;;2603027;54;20737;31
2022/03/30 12:54:37;;;;;;;;;;;14.80;84.40;;;;;;2601988;54;20824;31
2022/03/30 12:57:13;;;;;;;;;;;14.80;84.70;;;;;;2602682;54;19946;31
2022/03/30 12:59:49;;;;;;;;;;;14.80;84.60;;;;;;2602845;54;20627;31
2022/03/30 13:02:26;;;;;;;;;;;14.70;84.10;;;;;;2601941;54;20021;31
2022/03/30 13:05:03;;;;;;;;;;;14.60;84.00;;;;;;2617038;47;19946;31
2022/03/30 13:07:40;;;;;;;;;;;14.40;84.20;;;;;;2602616;54;20531;31
2022/03/30 13:10:19;;;;;;;;;;;14.20;86.10;;;;;;2602664;54;20009;31
2022/03/30 13:12:55;;;;;;;;;;;14.20;86.10;;;;;;2621942;46;19935;31
2022/03/30 13:15:32;;;;;;;;;;;14.20;85.70;;;;;;2603649;54;20677;31
2022/03/30 13:18:07;;;;;;;;;;;14.30;85.80;;;;;;2702260;39;20392;31
2022/03/30 13:20:43;;;;;;;;;;;14.20;85.30;;;;;;2720908;39;21277;31
2022/03/30 13:23:22;;;;;;;;;;;14.10;86.10;;;;;;2602709;54;20651;31
2022/03/30 13:26:02;;;;;;;;;;;14.00;86.00;;;;;;2602694;54;19942;31
2022/03/30 13:28:39;;;;;;;;;;;13.90;86.00;;;;;;2603738;54;19941;31
2022/03/30 13:31:13;;;;;;;;;;;13.90;86.30;;;;;;2603524;54;20816;31
2022/03/30 13:33:51;;;;;;;;;;;13.80;86.50;;;;;;2701945;39;21490;31
2022/03/30 13:39:15;;;;;;;;;;;13.60;87.40;;;;;;2603376;54;20852;31
2022/03/30 13:41:54;;;;;;;;;;;13.50;87.50;;;;;;2701175;39;20447;31
2022/03/30 13:44:30;;;;;;;;;;;13.50;87.50;;;;;;2621723;46;19957;31
2022/03/30 13:47:08;;;;;;;;;;;13.40;88.10;;;;;;2602854;54;20733;31
2022/03/30 13:49:47;;;;;;;;;;;13.30;87.60;;;;;;2603543;54;19935;31
2022/03/30 13:52:24;;;;;;;;;;;13.10;88.30;;;;;;2602737;54;19945;31
2022/03/30 13:55:00;;;;;;;;;;;13.00;89.60;;;;;;2621938;46;19954;31
2022/03/30 13:57:39;;;;;;;;;;;12.90;88.90;;;;;;2603311;54;20780;31
2022/03/30 14:00:18;;;;;;;;;;;12.80;88.80;;;;;;2622083;46;19941;31
2022/03/30 14:02:52;;;;;;;;;;;12.80;92.90;;;;;;2621922;46;19958;31
2022/03/30 14:05:31;;;;;;;;;;;12.80;90.20;;;;;;2621638;46;19941;31
2022/03/30 14:08:06;;;;;;;;;;;12.70;91.00;;;;;;2603207;54;19934;31
2022/03/30 14:10:42;;;;;;;;;;;12.60;91.80;;;;;;2603499;54;19941;31
2022/03/30 14:13:21;;;;;;;;;;;12.50;93.30;;;;;;2622058;46;20862;31
2022/03/30 14:15:58;;;;;;;;;;;12.40;95.50;;;;;;2603369;54;21200;31
2022/03/30 14:18:33;;;;;;;;;;;12.20;95.50;;;;;;2621496;46;20665;31
2022/03/30 14:21:11;;;;;;;;;;;12.20;94.90;;;;;;2621819;46;20009;31
2022/03/30 14:23:48;;;;;;;;;;;12.20;93.10;;;;;;2621170;47;20759;31
2022/03/30 14:26:26;;;;;;;;;;;12.10;94.30;;;;;;2603073;54;20017;31
2022/03/30 14:29:01;;;;;;;;;;;12.00;93.30;;;;;;2621794;46;20049;31
2022/03/30 14:31:43;;;;;;;;;;;12.00;93.40;;;;;;2621678;46;20782;31
2022/03/30 14:34:17;;;;;;;;;;;11.90;93.30;;;;;;2621714;46;19939;31
2022/03/30 14:36:54;;;;;;;;;;;11.90;93.50;;;;;;2621464;46;20745;31
2022/03/30 14:39:32;;;;;;;;;;;11.90;93.90;;;;;;2602837;54;19935;31
2022/03/30 14:42:05;;;;;;;;;;;11.90;94.10;;;;;;2602402;54;21723;31
2022/03/30 14:44:44;;;;;;;;;;;11.80;94.30;;;;;;2603108;54;20008;31
2022/03/30 14:47:23;;;;;;;;;;;11.80;94.40;;;;;;2621524;46;20005;31
2022/03/30 14:49:58;;;;;;;;;;;11.80;94.30;;;;;;2621676;46;20786;31
2022/03/30 14:52:34;;;;;;;;;;;11.80;94.40;;;;;;2603117;54;20768;31
2022/03/30 14:57:58;;;;;;;;;;;11.80;94.20;;;;;;2603098;54;19934;31
2022/03/30 15:00:41;;;;;;;;;;;11.80;94.10;;;;;;2603082;54;19942;31
2022/03/30 15:03:19;;;;;;;;;;;11.70;94.10;;;;;;2606442;46;19972;31
2022/03/30 15:05:54;;;;;;;;;;;11.70;94.20;;;;;;2604647;46;21098;31
2022/03/30 15:08:29;;;;;;;;;;;11.60;94.20;;;;;;2621266;46;19945;31
2022/03/30 15:11:08;;;;;;;;;;;11.60;94.40;;;;;;2603078;54;20777;31
2022/03/30 15:13:45;;;;;;;;;;;11.50;94.60;;;;;;2621826;46;20763;31
2022/03/30 15:16:21;;;;;;;;;;;11.40;97.40;;;;;;2612458;46;20785;31
2022/03/30 15:18:58;;;;;;;;;;;11.50;95.10;;;;;;2602913;54;20763;31
2022/03/30 15:21:35;;;;;;;;;;;11.60;94.60;;;;;;2602281;54;19935;31
2022/03/30 15:24:11;;;;;;;;;;;11.50;94.90;;;;;;2701467;39;20410;31
2022/03/30 15:26:48;;;;;;;;;;;11.50;95.40;;;;;;2621361;46;19954;31
2022/03/30 15:29:24;;;;;;;;;;;11.50;95.90;;;;;;2603108;54;20006;31
2022/03/30 15:31:59;;;;;;;;;;;11.30;96.80;;;;;;2603093;54;20772;31
2022/03/30 15:34:36;;;;;;;;;;;11.20;97.90;;;;;;2602706;54;20755;31
2022/03/30 15:37:14;;;;;;;;;;;11.10;99.10;;;;;;2602993;54;20641;31
2022/03/30 15:39:49;;;;;;;;;;;11.00;99.90;;;;;;2621590;46;20755;31
2022/03/30 15:42:24;;;;;;;;;;;10.90;99.90;;;;;;2602807;54;19935;31
2022/03/30 15:45:02;;;;;;;;;;;10.80;99.90;;;;;;2602747;54;20009;31
2022/03/30 15:47:36;;;;;;;;;;;10.60;99.90;;;;;;2602712;54;19946;31
2022/03/30 15:50:13;;;;;;;;;;;10.50;99.90;;;;;;2602819;54;20762;31
2022/03/30 15:52:51;;;;;;;;;;;10.40;99.90;;;;;;2617390;46;19942;31
2022/03/30 15:55:29;;;;;;;;;;;10.40;99.90;;;;;;2602632;54;19934;31
2022/03/30 15:58:04;;;;;;;;;;;10.30;99.90;;;;;;2602663;54;20735;31
2022/03/30 16:00:47;;;;;;;;;;;10.20;99.90;;;;;;2621418;46;20751;31
2022/03/30 16:03:26;;;;;;;;;;;10.20;99.90;;;;;;2621435;46;20028;31
2022/03/30 16:06:04;;;;;;;;;;;10.20;99.90;;;;;;2601790;54;20009;31
2022/03/30 16:14:15;;;;;;;;;;;10.00;99.90;;;;;;2602313;54;19985;31
2022/03/30 16:16:50;;;;;;;;;;;10.00;99.90;;;;;;2602575;54;20752;31
2022/03/30 16:19:25;;;;;;;;;;;10.00;99.90;;;;;;2602051;54;19942;31
2022/03/30 16:21:59;;;;;;;;;;;9.90;99.90;;;;;;2621213;46;19941;31